createdAt,value
2022-08-24T00:01:25.048Z,2.17
2022-08-24T00:03:55.171Z,2.03
2022-08-24T00:06:24.253Z,2.08
2022-08-24T00:08:54.376Z,1.88
2022-08-24T00:11:22.310Z,2.35
2022-08-24T00:13:50.423Z,2.03
2022-08-24T00:16:18.614Z,2.38
2022-08-24T00:18:46.940Z,2.13
2022-08-24T00:21:14.695Z,2.10
2022-08-24T00:23:42.621Z,2.05
2022-08-24T00:26:10.321Z,2.10
2022-08-24T00:28:37.731Z,2.17
2022-08-24T00:31:07.328Z,2.22
2022-08-24T00:33:35.621Z,2.13
2022-08-24T00:36:04.885Z,2.10
2022-08-24T00:38:35.346Z,2.00
2022-08-24T00:41:03.615Z,2.08
2022-08-24T00:43:32.132Z,2.10
2022-08-24T00:46:08.160Z,2.60
2022-08-24T00:48:40.911Z,2.10
2022-08-24T00:51:16.883Z,1.73
2022-08-24T00:53:49.228Z,1.88
2022-08-24T00:56:23.101Z,2.05
2022-08-24T00:58:57.323Z,1.90
2022-08-24T01:01:26.577Z,2.22
2022-08-24T01:03:57.010Z,2.05
2022-08-24T01:06:24.996Z,1.93
2022-08-24T01:08:56.867Z,1.85
2022-08-24T01:11:26.529Z,2.10
2022-08-24T01:13:55.381Z,2.45
2022-08-24T01:16:41.703Z,2.25
2022-08-24T01:19:33.248Z,1.70
2022-08-24T01:22:54.256Z,2.30
2022-08-24T01:25:24.584Z,1.80
2022-08-24T01:27:53.748Z,1.83
2022-08-24T01:30:29.357Z,1.95
2022-08-24T01:33:06.320Z,1.95
2022-08-24T01:35:35.501Z,2.05
2022-08-24T01:38:07.887Z,1.90
2022-08-24T01:40:44.158Z,2.08
2022-08-24T01:43:12.821Z,2.00
2022-08-24T01:45:40.010Z,1.90
2022-08-24T01:48:07.134Z,2.10
2022-08-24T01:50:34.358Z,1.70
2022-08-24T01:53:06.047Z,1.90
2022-08-24T01:55:34.669Z,1.80
2022-08-24T01:58:02.784Z,2.33
2022-08-24T02:00:30.554Z,1.95
2022-08-24T02:02:57.886Z,2.20
2022-08-24T02:05:25.842Z,2.00
2022-08-24T02:07:52.960Z,1.77
2022-08-24T02:10:20.628Z,2.13
2022-08-24T02:12:58.129Z,1.88
2022-08-24T02:15:40.505Z,1.88
2022-08-24T02:18:15.668Z,2.30
2022-08-24T02:20:43.812Z,1.90
2022-08-24T02:23:11.196Z,2.22
2022-08-24T02:25:38.343Z,1.67
2022-08-24T02:28:05.570Z,1.83
2022-08-24T02:30:33.027Z,1.77
2022-08-24T02:33:01.116Z,1.83
2022-08-24T02:35:30.311Z,2.08
2022-08-24T02:37:58.173Z,1.95
2022-08-24T02:40:26.124Z,2.08
2022-08-24T02:42:53.527Z,1.85
2022-08-24T02:45:20.823Z,1.80
2022-08-24T02:47:48.014Z,1.80
2022-08-24T02:50:17.987Z,2.00
2022-08-24T02:52:45.597Z,2.10
2022-08-24T02:55:19.741Z,2.00
2022-08-24T02:57:48.275Z,1.60
2022-08-24T03:00:17.858Z,1.55
2022-08-24T03:02:45.797Z,1.80
2022-08-24T03:05:14.546Z,2.22
2022-08-24T03:07:41.654Z,2.20
2022-08-24T03:10:09.044Z,1.90
2022-08-24T03:12:36.191Z,1.80
2022-08-24T03:15:06.409Z,1.80
2022-08-24T03:17:33.994Z,1.92
2022-08-24T03:20:02.512Z,1.70
2022-08-24T03:22:29.634Z,1.90
2022-08-24T03:24:56.893Z,1.92
2022-08-24T03:27:24.279Z,1.90
2022-08-24T03:29:51.598Z,2.10
2022-08-24T03:32:19.141Z,1.90
2022-08-24T03:34:46.709Z,2.08
2022-08-24T03:37:13.996Z,1.90
2022-08-24T03:39:41.149Z,2.00
2022-08-24T03:42:08.512Z,1.70
2022-08-24T03:44:35.628Z,1.50
2022-08-24T03:47:02.691Z,1.70
2022-08-24T03:49:29.962Z,1.88
2022-08-24T03:51:57.043Z,1.70
2022-08-24T03:54:24.142Z,2.10
2022-08-24T03:56:51.422Z,1.70
2022-08-24T03:59:20.139Z,1.83
2022-08-24T04:01:47.329Z,2.00
2022-08-24T04:04:14.600Z,1.77
2022-08-24T04:06:44.613Z,1.70
2022-08-24T04:09:12.003Z,1.90
2022-08-24T04:11:41.263Z,1.55
2022-08-24T04:14:20.317Z,2.10
2022-08-24T04:16:57.626Z,1.88
2022-08-24T04:19:25.617Z,1.90
2022-08-24T04:21:53.140Z,1.50
2022-08-24T04:24:20.781Z,1.77
2022-08-24T04:26:48.271Z,1.90
2022-08-24T04:29:17.500Z,1.50
2022-08-24T04:31:45.679Z,2.00
2022-08-24T04:34:14.611Z,1.58
2022-08-24T04:36:43.115Z,1.77
2022-08-24T04:39:10.780Z,1.58
2022-08-24T04:41:37.888Z,1.70
2022-08-24T04:44:06.183Z,1.50
2022-08-24T04:46:33.355Z,1.58
2022-08-24T04:49:00.466Z,1.60
2022-08-24T04:51:27.671Z,1.88
2022-08-24T04:54:04.490Z,1.77
2022-08-24T04:56:31.688Z,1.80
2022-08-24T04:58:58.773Z,1.50
2022-08-24T05:01:28.454Z,1.70
2022-08-24T05:03:56.105Z,1.80
2022-08-24T05:06:29.103Z,1.90
2022-08-24T05:08:57.127Z,1.70
2022-08-24T05:11:25.047Z,1.83
2022-08-24T05:13:53.902Z,1.85
2022-08-24T05:16:21.416Z,1.85
2022-08-24T05:18:49.357Z,1.77
2022-08-24T05:21:20.184Z,1.85
2022-08-24T05:23:49.388Z,1.85
2022-08-24T05:26:26.119Z,1.95
2022-08-24T05:28:58.242Z,1.70
2022-08-24T05:31:28.073Z,2.22
2022-08-24T05:33:55.889Z,1.80
2022-08-24T05:36:32.403Z,1.83
2022-08-24T05:39:01.300Z,1.85
2022-08-24T05:41:28.993Z,1.95
2022-08-24T05:43:56.272Z,1.80
2022-08-24T05:46:23.509Z,1.85
2022-08-24T05:48:52.687Z,1.80
2022-08-24T05:51:21.399Z,2.05
2022-08-24T05:53:48.891Z,2.20
2022-08-24T05:56:18.295Z,2.00
2022-08-24T05:58:45.859Z,5.78
2022-08-24T06:01:19.477Z,3.03
2022-08-24T06:03:47.296Z,2.20
2022-08-24T06:06:15.903Z,1.90
2022-08-24T06:08:46.459Z,1.70
2022-08-24T06:11:30.226Z,2.00
2022-08-24T06:14:07.884Z,1.90
2022-08-24T06:16:40.935Z,1.52
2022-08-24T06:19:10.010Z,1.90
2022-08-24T06:21:38.134Z,1.90
2022-08-24T06:24:07.250Z,1.80
2022-08-24T06:26:53.674Z,1.80
2022-08-24T06:29:21.336Z,1.92
2022-08-24T06:31:54.787Z,1.92
2022-08-24T06:34:26.378Z,1.70
2022-08-24T06:36:53.712Z,1.40
2022-08-24T06:39:21.062Z,1.52
2022-08-24T06:41:48.313Z,1.48
2022-08-24T06:44:15.390Z,1.70
2022-08-24T06:46:42.515Z,1.77
2022-08-24T06:49:09.677Z,1.33
2022-08-24T06:51:36.782Z,1.40
2022-08-24T06:54:04.091Z,1.30
2022-08-24T06:56:31.280Z,1.33
2022-08-24T06:59:00.621Z,1.10
2022-08-24T07:01:28.555Z,1.10
2022-08-24T07:03:56.564Z,1.40
2022-08-24T07:06:25.121Z,1.20
2022-08-24T07:08:52.979Z,1.30
2022-08-24T07:11:21.149Z,1.17
2022-08-24T07:13:49.544Z,1.45
2022-08-24T07:16:18.639Z,1.27
2022-08-24T07:18:49.994Z,1.13
2022-08-24T07:21:19.705Z,1.02
2022-08-24T07:23:48.957Z,1.15
2022-08-24T07:26:23.256Z,1.02
2022-08-24T07:29:01.406Z,1.63
2022-08-24T07:31:31.970Z,1.17
2022-08-24T07:34:02.912Z,0.82
2022-08-24T07:36:30.380Z,1.20
2022-08-24T07:38:58.030Z,0.90
2022-08-24T07:41:43.375Z,0.85
2022-08-24T07:44:15.827Z,1.15
2022-08-24T07:46:43.810Z,1.25
2022-08-24T07:49:31.600Z,1.10
2022-08-24T07:51:59.635Z,1.00
2022-08-24T07:54:28.935Z,1.10
2022-08-24T07:56:56.623Z,1.10
2022-08-24T07:59:23.819Z,0.93
2022-08-24T08:01:51.658Z,1.30
2022-08-24T08:04:22.182Z,0.98
2022-08-24T08:06:49.572Z,1.07
2022-08-24T08:09:16.829Z,1.23
2022-08-24T08:11:44.347Z,0.88
2022-08-24T08:14:11.971Z,1.30
2022-08-24T08:16:39.414Z,1.08
2022-08-24T08:19:10.760Z,1.13
2022-08-24T08:22:01.984Z,1.15
2022-08-24T08:24:29.336Z,1.13
2022-08-24T08:26:57.916Z,1.30
2022-08-24T08:29:26.411Z,1.20
2022-08-24T08:31:53.860Z,1.20
2022-08-24T08:34:21.108Z,1.23
2022-08-24T08:36:48.805Z,1.10
2022-08-24T08:39:18.032Z,0.80
2022-08-24T08:42:05.042Z,1.30
2022-08-24T08:44:41.325Z,0.88
2022-08-24T08:47:23.294Z,1.25
2022-08-24T08:50:16.609Z,0.95
2022-08-24T08:53:02.078Z,1.08
2022-08-24T08:55:32.231Z,1.13
2022-08-24T08:58:36.738Z,1.30
2022-08-24T09:01:26.441Z,1.00
2022-08-24T09:04:43.418Z,0.88
2022-08-24T09:07:31.693Z,1.02
2022-08-24T09:10:10.617Z,1.20
2022-08-24T09:13:03.893Z,0.80
2022-08-24T09:15:41.914Z,1.35
2022-08-24T09:18:16.856Z,1.20
2022-08-24T09:21:05.073Z,0.90
2022-08-24T09:23:41.518Z,1.30
2022-08-24T09:26:29.799Z,1.13
2022-08-24T09:29:07.462Z,1.08
2022-08-24T09:31:51.917Z,1.00
2022-08-24T09:34:30.435Z,1.13
2022-08-24T09:37:16.768Z,1.20
2022-08-24T09:40:12.604Z,0.90
2022-08-24T09:43:00.315Z,1.20
2022-08-24T09:46:03.557Z,1.33
2022-08-24T09:48:42.922Z,1.35
2022-08-24T09:51:27.769Z,1.20
2022-08-24T09:54:17.949Z,1.10
2022-08-24T09:57:15.502Z,1.05
2022-08-24T10:00:15.938Z,0.95
2022-08-24T10:03:27.337Z,1.20
2022-08-24T10:06:15.630Z,1.00
2022-08-24T10:09:03.935Z,1.45
2022-08-24T10:11:49.769Z,1.20
2022-08-24T10:14:41.812Z,1.17
2022-08-24T10:17:23.068Z,1.10
2022-08-24T10:20:02.984Z,1.10
2022-08-24T10:22:59.296Z,1.20
2022-08-24T10:25:51.338Z,1.00
2022-08-24T10:28:56.083Z,1.20
2022-08-24T10:31:39.119Z,2.35
2022-08-24T10:34:46.793Z,1.48
2022-08-24T10:37:45.537Z,1.67
2022-08-24T10:40:44.826Z,1.55
2022-08-24T10:43:46.993Z,1.30
2022-08-24T10:46:19.609Z,1.02
2022-08-24T10:49:21.145Z,1.30
2022-08-24T10:54:36.657Z,1.20
2022-08-24T10:57:12.428Z,1.40
2022-08-24T10:59:54.221Z,1.30
2022-08-24T11:02:39.373Z,1.00
2022-08-24T11:05:12.824Z,1.13
2022-08-24T11:08:06.510Z,1.27
2022-08-24T11:10:37.502Z,1.13
2022-08-24T11:13:26.319Z,1.35
2022-08-24T11:16:00.385Z,1.10
2022-08-24T11:18:54.177Z,1.30
2022-08-24T11:21:48.279Z,1.13
2022-08-24T11:24:46.236Z,1.10
2022-08-24T11:27:37.114Z,1.15
2022-08-24T11:30:15.489Z,1.20
2022-08-24T11:32:48.210Z,1.05
2022-08-24T11:35:27.256Z,1.25
2022-08-24T11:38:06.659Z,1.15
2022-08-24T11:40:40.360Z,1.10
2022-08-24T11:43:15.573Z,1.20
2022-08-24T11:45:52.929Z,1.20
2022-08-24T11:48:46.739Z,1.30
2022-08-24T11:51:22.785Z,1.20
2022-08-24T11:54:13.215Z,1.40
2022-08-24T11:57:03.051Z,1.40
2022-08-24T12:00:02.250Z,1.00
2022-08-24T12:02:43.054Z,1.15
2022-08-24T12:05:29.232Z,1.30
2022-08-24T12:08:24.624Z,1.30
2022-08-24T12:11:12.310Z,1.10
2022-08-24T12:14:05.210Z,1.13
2022-08-24T12:16:39.373Z,1.30
2022-08-24T12:19:14.382Z,1.10
2022-08-24T12:21:45.539Z,1.20
2022-08-24T12:26:50.471Z,1.15
2022-08-24T12:29:36.465Z,1.13
2022-08-24T12:32:12.306Z,1.25
2022-08-24T12:35:03.930Z,1.00
2022-08-24T12:37:38.952Z,1.25
2022-08-24T12:40:13.041Z,1.25
2022-08-24T12:43:18.300Z,1.30
2022-08-24T12:45:46.132Z,1.25
2022-08-24T12:48:21.496Z,1.20
2022-08-24T12:51:17.957Z,1.20
2022-08-24T12:54:06.275Z,1.45
2022-08-24T12:56:52.194Z,1.15
2022-08-24T12:59:27.128Z,1.13
2022-08-24T13:02:03.291Z,1.10
2022-08-24T13:04:39.916Z,1.20
2022-08-24T13:07:07.151Z,1.20
2022-08-24T13:09:38.946Z,1.10
2022-08-24T13:12:31.114Z,1.13
2022-08-24T13:15:30.682Z,1.17
2022-08-24T13:18:03.233Z,1.20
2022-08-24T13:20:43.865Z,1.10
2022-08-24T13:23:11.617Z,1.42
2022-08-24T13:25:48.044Z,1.30
2022-08-24T13:28:21.258Z,1.33
2022-08-24T13:30:54.278Z,1.33
2022-08-24T13:33:31.355Z,1.50
2022-08-24T13:36:04.290Z,1.40
2022-08-24T13:38:51.652Z,1.38
2022-08-24T13:41:20.040Z,1.35
2022-08-24T13:44:25.059Z,1.30
2022-08-24T13:47:17.795Z,1.60
2022-08-24T13:50:01.939Z,1.50
2022-08-24T13:52:50.615Z,1.17
2022-08-24T13:55:42.430Z,1.50
2022-08-24T13:58:23.492Z,1.20
2022-08-24T14:01:05.232Z,1.45
2022-08-24T14:04:02.726Z,1.35
2022-08-24T14:06:47.376Z,1.52
2022-08-24T14:09:36.384Z,1.20
2022-08-24T14:12:17.884Z,1.67
2022-08-24T14:15:11.770Z,1.20
2022-08-24T14:17:56.082Z,1.40
2022-08-24T14:21:09.235Z,1.45
2022-08-24T14:23:52.773Z,1.25
2022-08-24T14:26:36.971Z,1.40
2022-08-24T14:29:33.122Z,1.20
2022-08-24T14:32:08.405Z,1.30
2022-08-24T14:34:48.984Z,1.42
2022-08-24T14:37:19.056Z,1.23
2022-08-24T14:40:04.838Z,1.38
2022-08-24T14:42:55.386Z,1.20
2022-08-24T14:45:44.915Z,1.10
2022-08-24T14:48:39.936Z,1.30
2022-08-24T14:51:54.840Z,1.30
2022-08-24T14:54:33.918Z,1.25
2022-08-24T14:57:31.790Z,1.40
2022-08-24T15:00:15.198Z,1.00
2022-08-24T15:02:51.308Z,1.45
2022-08-24T15:05:40.722Z,1.25
2022-08-24T15:08:33.498Z,1.70
2022-08-24T15:11:08.793Z,1.30
2022-08-24T15:13:51.022Z,1.38
2022-08-24T15:16:53.366Z,1.55
2022-08-24T15:19:27.050Z,1.35
2022-08-24T15:22:02.834Z,1.40
2022-08-24T15:24:43.047Z,1.35
2022-08-24T15:27:28.619Z,1.30
2022-08-24T15:30:00.183Z,1.67
2022-08-24T15:32:50.946Z,1.60
2022-08-24T15:35:26.930Z,1.20
2022-08-24T15:37:54.360Z,1.55
2022-08-24T15:40:31.891Z,1.38
2022-08-24T15:43:04.089Z,1.25
2022-08-24T15:45:33.095Z,1.23
2022-08-24T15:48:02.471Z,1.40
2022-08-24T15:50:35.361Z,1.15
2022-08-24T15:53:05.867Z,1.38
2022-08-24T15:55:38.440Z,1.20
2022-08-24T15:58:37.420Z,1.45
2022-08-24T16:01:29.112Z,1.58
2022-08-24T16:04:08.947Z,1.30
2022-08-24T16:06:48.171Z,1.58
2022-08-24T16:09:21.467Z,1.30
2022-08-24T16:12:07.013Z,1.40
2022-08-24T16:14:47.196Z,1.33
2022-08-24T16:17:39.825Z,1.67
2022-08-24T16:20:15.574Z,1.80
2022-08-24T16:22:58.499Z,1.35
2022-08-24T16:25:44.192Z,1.35
2022-08-24T16:28:25.550Z,1.52
2022-08-24T16:31:06.914Z,1.38
2022-08-24T16:33:46.425Z,1.50
2022-08-24T16:36:20.988Z,1.23
2022-08-24T16:38:53.188Z,1.38
2022-08-24T16:41:24.468Z,1.25
2022-08-24T16:43:52.135Z,1.30
2022-08-24T16:46:22.311Z,1.20
2022-08-24T16:48:49.753Z,1.47
2022-08-24T16:51:16.962Z,1.08
2022-08-24T16:53:44.052Z,1.55
2022-08-24T16:56:14.807Z,1.63
2022-08-24T16:58:46.340Z,1.27
2022-08-24T17:01:14.682Z,1.45
2022-08-24T17:03:42.805Z,1.35
2022-08-24T17:06:12.663Z,1.60
2022-08-24T17:08:40.944Z,1.20
2022-08-24T17:11:08.901Z,1.33
2022-08-24T17:13:49.378Z,1.40
2022-08-24T17:16:18.273Z,1.10
2022-08-24T17:18:45.762Z,1.73
2022-08-24T17:21:13.082Z,1.45
2022-08-24T17:23:41.868Z,1.50
2022-08-24T17:26:20.474Z,1.42
2022-08-24T17:28:50.271Z,1.38
2022-08-24T17:31:17.615Z,1.02
2022-08-24T17:33:45.000Z,1.48
2022-08-24T17:36:15.873Z,1.20
2022-08-24T17:38:53.090Z,1.30
2022-08-24T17:41:22.411Z,1.38
2022-08-24T17:43:50.054Z,1.10
2022-08-24T17:46:18.382Z,1.20
2022-08-24T17:48:46.962Z,1.35
2022-08-24T17:51:15.090Z,1.10
2022-08-24T17:53:42.875Z,1.30
2022-08-24T17:56:14.254Z,1.40
2022-08-24T17:59:01.349Z,1.42
2022-08-24T18:01:29.485Z,1.50
2022-08-24T18:03:57.097Z,1.60
2022-08-24T18:06:25.673Z,1.30
2022-08-24T18:08:57.064Z,1.33
2022-08-24T18:11:26.281Z,1.65
2022-08-24T18:13:54.803Z,1.40
2022-08-24T18:16:24.385Z,1.15
2022-08-24T18:18:55.642Z,1.17
2022-08-24T18:21:23.372Z,1.73
2022-08-24T18:23:51.462Z,1.10
2022-08-24T18:26:28.107Z,1.63
2022-08-24T18:28:57.600Z,1.38
2022-08-24T18:31:27.830Z,1.70
2022-08-24T18:33:55.359Z,1.33
2022-08-24T18:36:22.812Z,1.83
2022-08-24T18:38:50.528Z,1.20
2022-08-24T18:41:18.699Z,1.38
2022-08-24T18:43:46.193Z,1.75
2022-08-24T18:46:14.027Z,1.38
2022-08-24T18:48:43.795Z,1.42
2022-08-24T18:51:12.306Z,1.67
2022-08-24T18:53:43.059Z,1.55
2022-08-24T18:56:12.696Z,1.70
2022-08-24T18:58:41.821Z,1.48
2022-08-24T19:01:09.406Z,1.30
2022-08-24T19:03:36.850Z,1.92
2022-08-24T19:06:04.325Z,1.55
2022-08-24T19:08:31.622Z,1.30
2022-08-24T19:10:58.860Z,1.50
2022-08-24T19:13:28.872Z,1.65
2022-08-24T19:15:58.573Z,1.45
2022-08-24T19:18:26.411Z,1.60
2022-08-24T19:20:56.693Z,1.63
2022-08-24T19:23:28.888Z,1.40
2022-08-24T19:25:56.132Z,1.40
2022-08-24T19:28:24.925Z,1.50
2022-08-24T19:30:55.993Z,1.77
2022-08-24T19:33:30.013Z,1.85
2022-08-24T19:35:59.576Z,1.60
2022-08-24T19:38:26.831Z,1.65
2022-08-24T19:40:57.497Z,1.23
2022-08-24T19:43:29.631Z,1.77
2022-08-24T19:46:07.856Z,1.42
2022-08-24T19:48:39.870Z,1.60
2022-08-24T19:51:11.943Z,1.90
2022-08-24T19:53:39.411Z,1.55
2022-08-24T19:56:07.452Z,1.45
2022-08-24T19:58:53.895Z,1.83
2022-08-24T20:01:24.716Z,1.20
2022-08-24T20:03:51.994Z,1.40
2022-08-24T20:06:25.246Z,1.13
2022-08-24T20:08:53.320Z,1.48
2022-08-24T20:11:25.080Z,1.77
2022-08-24T20:13:53.408Z,1.20
2022-08-24T20:16:22.699Z,1.20
2022-08-24T20:18:53.347Z,1.58
2022-08-24T20:21:28.153Z,1.10
2022-08-24T20:23:57.768Z,1.25
2022-08-24T20:26:25.623Z,1.45
2022-08-24T20:28:59.178Z,1.30
2022-08-24T20:31:30.666Z,1.52
2022-08-24T20:34:04.445Z,1.60
2022-08-24T20:36:43.439Z,1.30
2022-08-24T20:39:13.410Z,1.60
2022-08-24T20:41:40.855Z,1.50
2022-08-24T20:44:09.602Z,1.30
2022-08-24T20:46:38.570Z,1.40
2022-08-24T20:49:16.849Z,1.58
2022-08-24T20:51:44.645Z,1.20
2022-08-24T20:54:14.278Z,1.50
2022-08-24T20:56:44.202Z,1.60
2022-08-24T20:59:18.475Z,1.60
2022-08-24T21:01:47.428Z,1.60
2022-08-24T21:04:22.040Z,1.73
2022-08-24T21:06:50.874Z,1.52
2022-08-24T21:09:18.745Z,1.65
2022-08-24T21:11:46.558Z,1.45
2022-08-24T21:14:17.749Z,1.45
2022-08-24T21:16:45.341Z,1.45
2022-08-24T21:19:16.512Z,1.70
2022-08-24T21:21:45.345Z,1.27
2022-08-24T21:24:12.778Z,1.50
2022-08-24T21:26:40.601Z,1.42
2022-08-24T21:29:14.332Z,1.50
2022-08-24T21:32:01.703Z,1.58
2022-08-24T21:34:43.198Z,1.60
2022-08-24T21:37:17.816Z,1.60
2022-08-24T21:39:47.137Z,1.70
2022-08-24T21:42:17.001Z,1.42
2022-08-24T21:44:50.428Z,1.73
2022-08-24T21:47:21.016Z,1.30
2022-08-24T21:49:51.018Z,1.80
2022-08-24T21:52:22.191Z,1.58
2022-08-24T21:54:49.456Z,1.42
2022-08-24T21:57:17.267Z,1.77
2022-08-24T21:59:45.488Z,1.75
2022-08-24T22:02:18.513Z,1.70
2022-08-24T22:04:55.999Z,1.73
2022-08-24T22:07:29.342Z,1.65
2022-08-24T22:10:01.905Z,1.92
2022-08-24T22:12:32.235Z,1.70
2022-08-24T22:14:59.584Z,2.05
2022-08-24T22:17:26.981Z,1.67
2022-08-24T22:20:02.512Z,2.40
2022-08-24T22:22:29.797Z,1.80
2022-08-24T22:24:56.939Z,1.77
2022-08-24T22:27:24.994Z,2.10
2022-08-24T22:29:53.613Z,2.10
2022-08-24T22:32:20.810Z,1.70
2022-08-24T22:34:47.972Z,1.90
2022-08-24T22:37:15.153Z,1.80
2022-08-24T22:39:42.613Z,2.05
2022-08-24T22:42:13.305Z,1.95
2022-08-24T22:44:41.275Z,2.10
2022-08-24T22:47:12.947Z,1.92
2022-08-24T22:49:46.190Z,2.33
2022-08-24T22:52:14.823Z,1.80
2022-08-24T22:54:42.904Z,1.90
2022-08-24T22:57:19.920Z,2.15
2022-08-24T22:59:47.330Z,2.15
2022-08-24T23:02:16.147Z,1.70
2022-08-24T23:04:50.123Z,1.80
2022-08-24T23:07:18.061Z,1.70
2022-08-24T23:09:49.632Z,1.73
2022-08-24T23:12:22.644Z,1.98
2022-08-24T23:14:51.781Z,2.10
2022-08-24T23:17:19.809Z,2.33
2022-08-24T23:20:06.703Z,1.98
2022-08-24T23:22:37.229Z,1.90
2022-08-24T23:25:05.761Z,1.93
2022-08-24T23:27:37.779Z,2.10
2022-08-24T23:30:11.938Z,2.03
2022-08-24T23:32:44.033Z,2.20
2022-08-24T23:35:11.337Z,2.40
2022-08-24T23:37:42.655Z,2.17
2022-08-24T23:40:12.595Z,2.08
2022-08-24T23:42:39.827Z,1.88
2022-08-24T23:45:11.144Z,2.10
2022-08-24T23:47:39.823Z,1.83
2022-08-24T23:50:17.607Z,1.90
2022-08-24T23:52:49.337Z,2.00
2022-08-24T23:55:21.229Z,2.08
2022-08-24T23:57:51.984Z,2.10
